createdAt,value
2022-10-21T00:00:46.324Z,4173.6
2022-10-21T00:06:24.793Z,4173.1
2022-10-21T00:11:59.894Z,4169.7
2022-10-21T00:17:44.795Z,4173.9
2022-10-21T00:23:21.695Z,4173.3
2022-10-21T00:28:56.674Z,4170.4
2022-10-21T00:34:32.654Z,4172.8
2022-10-21T00:40:14.478Z,4170.7
2022-10-21T00:45:49.694Z,4170.9
2022-10-21T00:51:24.475Z,4169.2
2022-10-21T00:57:04.527Z,4171.4
2022-10-21T01:02:39.884Z,4170.4
2022-10-21T01:08:14.745Z,4170.2
2022-10-21T01:13:49.677Z,4168.2
2022-10-21T01:19:24.761Z,4169.6
2022-10-21T01:24:59.548Z,4166.2
2022-10-21T01:30:43.080Z,4168.9
2022-10-21T01:36:19.105Z,4167.1
2022-10-21T01:42:13.890Z,4166.4
2022-10-21T01:47:58.135Z,4167.1
2022-10-21T01:53:34.418Z,4167.4
2022-10-21T01:59:09.105Z,4165.4
2022-10-21T02:04:53.140Z,4165.9
2022-10-21T02:10:29.554Z,4166.4
2022-10-21T02:16:18.438Z,4166.1
2022-10-21T02:21:53.331Z,4169.1
2022-10-21T02:27:43.066Z,4166.2
2022-10-21T02:33:25.741Z,4162.9
2022-10-21T02:39:21.243Z,4165.6
2022-10-21T02:44:56.729Z,4165.9
2022-10-21T02:52:55.165Z,4163
2022-10-21T02:58:31.115Z,4161.7
2022-10-21T03:04:51.535Z,4162.4
2022-10-21T03:10:26.743Z,4161.5
2022-10-21T03:16:07.580Z,4160
2022-10-21T03:21:42.756Z,4158.4
2022-10-21T03:27:23.024Z,4157.3
2022-10-21T03:33:13.857Z,4163
2022-10-21T03:38:58.056Z,4160.5
2022-10-21T03:44:33.072Z,4157
2022-10-21T03:50:27.197Z,4156.5
2022-10-21T03:56:17.670Z,4157.5
2022-10-21T04:01:56.010Z,4156.3
2022-10-21T04:07:38.908Z,4158.5
2022-10-21T04:13:14.260Z,4158.2
2022-10-21T04:18:50.995Z,4155.3
2022-10-21T04:24:34.696Z,4156.2
2022-10-21T04:30:10.896Z,4158.9
2022-10-21T04:35:54.643Z,4155
2022-10-21T04:41:36.429Z,4157.2
2022-10-21T04:47:15.608Z,4155.3
2022-10-21T04:52:57.267Z,4153.3
2022-10-21T04:58:54.122Z,4156.8
2022-10-21T05:04:39.121Z,4155
2022-10-21T05:10:19.808Z,4154
2022-10-21T05:16:03.575Z,4154.7
2022-10-21T05:21:39.040Z,4152.8
2022-10-21T05:27:14.844Z,4156.3
2022-10-21T05:32:51.118Z,4152.3
2022-10-21T05:38:26.401Z,4153.3
2022-10-21T05:44:19.406Z,4152.5
2022-10-21T05:49:58.671Z,4152.7
2022-10-21T05:55:33.719Z,4153.5
2022-10-21T06:01:11.142Z,4151
2022-10-21T06:07:15.993Z,4151
2022-10-21T06:12:51.267Z,4152.2
2022-10-21T06:18:48.412Z,4150.8
2022-10-21T06:24:57.060Z,4154.5
2022-10-21T06:30:32.386Z,4150
2022-10-21T06:36:07.141Z,4149.1
2022-10-21T06:41:41.944Z,4153.3
2022-10-21T06:47:16.938Z,4150
2022-10-21T06:52:52.784Z,4150.1
2022-10-21T06:58:28.030Z,4149
2022-10-21T07:04:03.000Z,4149.5
2022-10-21T07:09:48.021Z,4147.6
2022-10-21T07:15:23.387Z,4149.5
2022-10-21T07:20:58.566Z,4147.3
2022-10-21T07:26:34.955Z,4151.3
2022-10-21T07:32:15.630Z,4147
2022-10-21T07:37:53.181Z,4149.8
2022-10-21T07:43:28.173Z,4149
2022-10-21T07:49:11.797Z,4146.6
2022-10-21T07:54:56.495Z,4146.8
2022-10-21T08:00:31.496Z,4147.5
2022-10-21T08:06:21.298Z,4148
2022-10-21T08:11:56.730Z,4147.1
2022-10-21T08:17:31.451Z,4148
2022-10-21T08:23:14.726Z,4147.5
2022-10-21T08:28:51.073Z,4149
2022-10-21T08:34:26.327Z,4148.8
2022-10-21T08:40:01.226Z,4149.1
2022-10-21T08:45:37.205Z,4148.6
2022-10-21T08:51:20.954Z,4147.3
2022-10-21T08:56:58.782Z,4149.3
2022-10-21T09:02:43.462Z,4150.3
2022-10-21T09:09:11.319Z,4151.3
2022-10-21T09:14:54.725Z,4150.8
2022-10-21T09:20:39.105Z,4152.2
2022-10-21T09:26:14.203Z,4148.6
2022-10-21T09:32:03.651Z,4151
2022-10-21T09:37:42.086Z,4149
2022-10-21T09:43:23.588Z,4148.6
2022-10-21T09:50:11.644Z,4146.8
2022-10-21T09:55:50.030Z,4148.3
2022-10-21T10:01:37.794Z,4146.5
2022-10-21T10:07:13.269Z,4149
2022-10-21T10:12:48.118Z,4146
2022-10-21T10:18:52.048Z,4151.7
2022-10-21T10:24:52.989Z,4151.2
2022-10-21T10:30:28.507Z,4154.7
2022-10-21T10:36:13.993Z,4151
2022-10-21T10:41:58.429Z,4154.5
2022-10-21T10:47:34.571Z,4153.5
2022-10-21T10:53:13.520Z,4152.8
2022-10-21T10:58:55.688Z,4157.9
2022-10-21T11:04:34.775Z,4155.2
2022-10-21T11:10:11.341Z,4163.4
2022-10-21T11:16:16.730Z,4159.9
2022-10-21T11:21:55.302Z,4162.2
2022-10-21T11:27:38.407Z,4162.7
2022-10-21T11:33:13.390Z,4156.7
2022-10-21T11:38:56.042Z,4157.2
2022-10-21T11:44:34.292Z,4163
2022-10-21T11:50:12.057Z,4159.9
2022-10-21T11:55:47.768Z,4157.9
2022-10-21T12:01:22.808Z,4159.5
2022-10-21T12:06:57.810Z,4163.4
2022-10-21T12:12:33.869Z,4161.7
2022-10-21T12:18:25.565Z,4163.2
2022-10-21T12:24:08.719Z,4165.4
2022-10-21T12:29:44.534Z,4172.6
2022-10-21T12:35:19.817Z,4174.1
2022-10-21T12:41:02.164Z,4176.9
2022-10-21T12:46:41.321Z,4179.6
2022-10-21T12:53:37.667Z,4178
2022-10-21T12:59:34.626Z,4176.8
2022-10-21T13:05:19.592Z,4183.6
2022-10-21T13:10:54.512Z,4179.6
2022-10-21T13:17:05.293Z,4180.5
2022-10-21T13:22:45.751Z,4180.1
2022-10-21T13:28:28.111Z,4179.5
2022-10-21T13:34:07.335Z,4180.3
2022-10-21T13:40:03.726Z,4178.1
2022-10-21T13:45:42.878Z,4180
2022-10-21T13:51:39.283Z,4181.8
2022-10-21T13:57:14.737Z,4177.6
2022-10-21T14:02:58.481Z,4178.6
2022-10-21T14:09:34.180Z,4178.3
2022-10-21T14:15:18.300Z,4177.1
2022-10-21T14:21:15.074Z,4173.3
2022-10-21T14:26:53.456Z,4172.8
2022-10-21T14:32:28.472Z,4171.1
2022-10-21T14:38:10.254Z,4170.4
2022-10-21T14:43:54.690Z,4174.4
2022-10-21T14:49:35.226Z,4174.8
2022-10-21T14:55:10.995Z,4169.4
2022-10-21T15:01:19.339Z,4168.4
2022-10-21T15:06:54.691Z,4171.8
2022-10-21T15:12:41.966Z,4169.6
2022-10-21T15:18:21.615Z,4170.1
2022-10-21T15:23:56.581Z,4173.3
2022-10-21T15:29:31.754Z,4170.1
2022-10-21T15:35:06.556Z,4170.2
2022-10-21T15:40:46.007Z,4167.1
2022-10-21T15:46:29.577Z,4166.4
2022-10-21T15:52:05.295Z,4165.9
2022-10-21T15:57:42.896Z,4164.4
2022-10-21T16:03:21.168Z,4166.1
2022-10-21T16:08:56.929Z,4163.9
2022-10-21T16:14:36.982Z,4161.5
2022-10-21T16:20:12.595Z,4162.4
2022-10-21T16:27:55.478Z,4163.2
2022-10-21T16:33:33.255Z,4163.2
2022-10-21T16:39:09.144Z,4164.2
2022-10-21T16:44:45.385Z,4164.6
2022-10-21T16:50:20.512Z,4162.5
2022-10-21T16:56:03.653Z,4159.9
2022-10-21T17:01:38.963Z,4162.5
2022-10-21T17:07:18.750Z,4161.9
2022-10-21T17:12:59.760Z,4160.9
2022-10-21T17:18:37.073Z,4159.5
2022-10-21T17:24:15.241Z,4161.4
2022-10-21T17:29:51.860Z,4161.9
2022-10-21T17:35:31.024Z,4159.9
2022-10-21T17:41:08.584Z,4154.7
2022-10-21T17:46:51.247Z,4158.4
2022-10-21T17:52:26.110Z,4155.8
2022-10-21T17:58:04.278Z,4157
2022-10-21T18:03:40.347Z,4156.7
2022-10-21T18:09:23.868Z,4155
2022-10-21T18:15:01.934Z,4154.8
2022-10-21T18:20:41.175Z,4154.5
2022-10-21T18:26:15.959Z,4154
2022-10-21T18:32:15.012Z,4150.5
2022-10-21T18:37:54.038Z,4153.3
2022-10-21T18:43:30.366Z,4156.2
2022-10-21T18:49:07.766Z,4153.7
2022-10-21T18:54:51.027Z,4152.2
2022-10-21T19:00:36.636Z,4150.8
2022-10-21T19:06:11.685Z,4152
2022-10-21T19:11:49.854Z,4153.8
2022-10-21T19:17:30.530Z,4152
2022-10-21T19:23:15.313Z,4152.2
2022-10-21T19:29:06.936Z,4150.5
2022-10-21T19:34:47.610Z,4149
2022-10-21T19:40:22.544Z,4149
2022-10-21T19:45:57.502Z,4152.7
2022-10-21T19:51:38.140Z,4152
2022-10-21T19:57:23.819Z,4150.5
2022-10-21T20:03:02.877Z,4149
2022-10-21T20:08:39.388Z,4151
2022-10-21T20:14:15.595Z,4149.3
2022-10-21T20:19:55.164Z,4149.6
2022-10-21T20:25:30.326Z,4150.5
2022-10-21T20:31:22.103Z,4149.8
2022-10-21T20:37:03.425Z,4149.8
2022-10-21T20:42:46.480Z,4150.1
2022-10-21T20:48:24.287Z,4149
2022-10-21T20:53:59.160Z,4149.8
2022-10-21T20:59:33.984Z,4147.3
2022-10-21T21:05:10.009Z,4148.3
2022-10-21T21:10:45.120Z,4147.5
2022-10-21T21:16:20.881Z,4147.5
2022-10-21T21:21:55.803Z,4146.3
2022-10-21T21:27:31.539Z,4147.8
2022-10-21T21:33:07.465Z,4147.5
2022-10-21T21:38:42.514Z,4143.4
2022-10-21T21:44:17.404Z,4147
2022-10-21T21:49:52.644Z,4146.1
2022-10-21T21:55:27.626Z,4147.3
2022-10-21T22:01:03.754Z,4146
2022-10-21T22:06:39.801Z,4147.1
2022-10-21T22:12:23.908Z,4143.8
2022-10-21T22:17:58.682Z,4144.8
2022-10-21T22:23:33.449Z,4142.6
2022-10-21T22:29:09.413Z,4144.6
2022-10-21T22:34:44.216Z,4142.1
2022-10-21T22:40:19.272Z,4146.6
2022-10-21T22:46:35.676Z,4142.6
2022-10-21T22:52:11.160Z,4142.3
2022-10-21T22:57:49.369Z,4142.4
2022-10-21T23:03:24.290Z,4143.1
2022-10-21T23:09:00.087Z,4142.4
2022-10-21T23:14:35.215Z,4142.3
2022-10-21T23:20:10.132Z,4145.5
2022-10-21T23:25:52.983Z,4141.4
2022-10-21T23:31:27.999Z,4144.6
2022-10-21T23:37:02.779Z,4140.1
2022-10-21T23:42:44.100Z,4141.9
2022-10-21T23:48:18.845Z,4142.4
2022-10-21T23:53:53.810Z,4142.8
2022-10-21T23:59:30.660Z,4140.9
